Big Bear City, CA

6:34 AM PDT on September 15, 2019 (GMT -0700)
Big Bear City

Weather History for KL35 - May, 2019

Change the Weather History Date:

Tuesday, May 21, 2019

  Actual Average (KBUO) Record (KBUO)
Temperature  
Mean Temperature 37 °F -  
Max Temperature 42 °F 77 °F 100 °F (2000)
Min Temperature 32 °F 51 °F 50 °F (1998)
Degree Days  
Heating Degree Days 28    
Moisture  
Dew Point 30 °F    
Average Humidity 80    
Maximum Humidity 100    
Minimum Humidity 53    
Precipitation  
Precipitation 0.00 in - - ()
Sea Level Pressure  
Sea Level Pressure 29.83 in    
Wind  
Wind Speed 10 mph (WSW)    
Max Wind Speed 21 mph    
Max Gust Speed 31 mph    
Visibility 10 miles    
Events Rain    
Averages and records for this station are not official NWS values.
T = Trace of Precipitation, MM = Missing Value Source: NWS Daily Summary

Daily Weather History Graph

Daily Weather History Graph

Search for Another Location

Airport or City:

Astronomy

May. 21, 2019 Rise Set
Actual Time 5:41 AM PDT 7:46 PM PDT
Civil Twilight 5:13 AM PDT 8:15 PM PDT
Nautical Twilight 4:39 AM PDT 8:49 PM PDT
Astronomical Twilight 4:02 AM PDT 9:26 PM PDT
Moon 10:44 PM PDT (5/21) 8:03 AM PDT (5/21)
Length of Visible Light 15h 01m
Length of Day
14h 05m
Waning Gibbous, 91% of the Moon is Illuminated
May 21
Waning Gibbous
May 26
Last Quarter
Jun 3
New
Jun 9
First Quarter
Jun 17
Full

Hourly Weather History & Observations

Time (PDT) Temp. Windchill Dew Point Humidity Pressure Visibility Wind Dir Wind Speed Gust Speed Precip Events Conditions
12:15 AM 32.0 °F - 28.4 °F 87% 29.95 in 10.0 mi Calm Calm - N/A   Clear
12:35 AM 32.0 °F - 28.4 °F 87% 29.95 in 10.0 mi Calm Calm - N/A   Clear
12:55 AM 33.8 °F 30.8 °F 24.8 °F 70% 29.94 in 10.0 mi West 3.5 mph - N/A   Clear
1:15 AM 33.8 °F 25.3 °F 28.4 °F 81% 29.93 in 10.0 mi WSW 11.5 mph 18.4 mph N/A   Clear
1:35 AM 32.0 °F 25.6 °F 28.4 °F 87% 29.93 in 10.0 mi West 6.9 mph - N/A   Clear
1:55 AM 33.8 °F 30.8 °F 28.4 °F 81% 29.92 in 10.0 mi WSW 3.5 mph - N/A   Clear
2:15 AM 33.8 °F 25.3 °F 28.4 °F 81% 29.92 in 10.0 mi WNW 11.5 mph - N/A   Clear
2:35 AM 32.0 °F 23.6 °F 30.2 °F 93% 29.92 in 10.0 mi West 10.4 mph - N/A   Clear
2:55 AM 32.0 °F 24.2 °F 30.2 °F 93% 29.91 in 10.0 mi WSW 9.2 mph - N/A   Clear
3:15 AM 32.0 °F 22.5 °F 32.0 °F 100% 29.91 in 10.0 mi West 12.7 mph 17.3 mph N/A   Clear
3:35 AM 32.0 °F 24.2 °F 28.4 °F 87% 29.90 in 10.0 mi West 9.2 mph - N/A   Clear
3:55 AM 32.0 °F 21.6 °F 30.2 °F 93% 29.90 in 10.0 mi West 15.0 mph 19.6 mph N/A   Clear
4:15 AM 32.0 °F 21.6 °F 30.2 °F 93% 29.89 in 10.0 mi West 15.0 mph 20.7 mph N/A   Clear
4:35 AM 32.0 °F 20.8 °F 30.2 °F 93% 29.89 in 10.0 mi West 17.3 mph 23.0 mph N/A   Clear
4:55 AM 32.0 °F 20.8 °F 30.2 °F 93% 29.89 in 10.0 mi West 17.3 mph 21.9 mph N/A   Clear
5:15 AM 32.0 °F 21.6 °F 30.2 °F 93% 29.89 in 10.0 mi West 15.0 mph - N/A   Clear
5:35 AM 32.0 °F 23.0 °F 30.2 °F 93% 29.88 in 10.0 mi West 11.5 mph 17.3 mph N/A   Clear
5:55 AM 32.0 °F 22.1 °F 30.2 °F 93% 29.89 in 10.0 mi West 13.8 mph 19.6 mph N/A   Clear
6:15 AM 32.0 °F 24.2 °F 30.2 °F 93% 29.89 in 10.0 mi WSW 9.2 mph - N/A   Clear
6:35 AM 32.0 °F 21.6 °F 30.2 °F 93% 29.89 in 10.0 mi West 15.0 mph 20.7 mph N/A   Clear
6:55 AM 32.0 °F 22.1 °F 30.2 °F 93% 29.88 in 10.0 mi West 13.8 mph - N/A   Clear
7:15 AM 33.8 °F 25.3 °F 30.2 °F 87% 29.88 in 10.0 mi West 11.5 mph - N/A   Clear
7:35 AM 35.6 °F 27.1 °F 30.2 °F 81% 29.87 in 10.0 mi West 12.7 mph 18.4 mph N/A   Clear
7:55 AM 35.6 °F 27.5 °F 30.2 °F 81% 29.88 in 10.0 mi West 11.5 mph 19.6 mph N/A   Clear
8:15 AM 37.4 °F 28.9 °F 30.2 °F 75% 29.88 in 10.0 mi West 13.8 mph 18.4 mph N/A   Clear
8:35 AM 39.2 °F 32.0 °F 30.2 °F 70% 29.87 in 10.0 mi West 11.5 mph - N/A   Clear
8:55 AM 41.0 °F 35.2 °F 26.6 °F 57% 29.86 in 10.0 mi WSW 9.2 mph 17.3 mph N/A   Clear
9:15 AM 41.0 °F 33.1 °F 28.4 °F 61% 29.86 in 10.0 mi West 15.0 mph 21.9 mph N/A   Clear
9:35 AM 41.0 °F 33.5 °F 26.6 °F 57% 29.86 in 10.0 mi West 13.8 mph 21.9 mph N/A   Clear
9:55 AM 42.8 °F 36.6 °F 26.6 °F 53% 29.86 in 10.0 mi WSW 11.5 mph 20.7 mph N/A   Clear
10:15 AM 41.0 °F 34.3 °F 30.2 °F 65% 29.86 in 10.0 mi WSW 11.5 mph 18.4 mph N/A   Clear
10:35 AM 41.0 °F 35.2 °F 30.2 °F 65% 29.85 in 10.0 mi WSW 9.2 mph 23.0 mph N/A   Scattered Clouds
10:55 AM 41.0 °F 32.8 °F 32.0 °F 70% 29.86 in 10.0 mi West 16.1 mph 25.3 mph N/A   Scattered Clouds
11:15 AM 41.0 °F 32.8 °F 30.2 °F 65% 29.86 in 10.0 mi West 16.1 mph 24.2 mph N/A   Scattered Clouds
11:35 AM 41.0 °F 32.2 °F 32.0 °F 70% 29.85 in 10.0 mi West 18.4 mph 26.5 mph N/A   Scattered Clouds
11:55 AM 42.8 °F 34.0 °F 32.0 °F 66% 29.84 in 10.0 mi West 20.7 mph 27.6 mph N/A   Clear
12:15 PM 42.8 °F 34.5 °F 30.2 °F 61% 29.85 in 10.0 mi West 18.4 mph 29.9 mph N/A   Clear
12:35 PM 41.0 °F 35.2 °F 32.0 °F 70% 29.85 in 10.0 mi SSW 9.2 mph 24.2 mph N/A   Scattered Clouds
12:55 PM 42.8 °F 36.6 °F 32.0 °F 66% 29.84 in 10.0 mi West 11.5 mph 27.6 mph N/A   Mostly Cloudy
1:15 PM 42.8 °F 37.0 °F 32.0 °F 66% 29.84 in 10.0 mi West 10.4 mph 23.0 mph N/A   Mostly Cloudy
1:35 PM 41.0 °F 35.8 °F 32.0 °F 70% 29.83 in 10.0 mi WSW 8.1 mph 19.6 mph N/A   Overcast
1:50 PM 41.0 °F 34.3 °F 32.0 °F 70% 29.82 in 10.0 mi West 11.5 mph 26.5 mph N/A   Overcast
2:15 PM 42.8 °F 34.8 °F 32.0 °F 66% 29.81 in 10.0 mi West 17.3 mph 31.1 mph N/A   Mostly Cloudy
2:35 PM 41.0 °F 31.6 °F 32.0 °F 70% 29.81 in 10.0 mi West 20.7 mph 27.6 mph N/A   Overcast
2:55 PM 41.0 °F 33.1 °F 32.0 °F 70% 29.80 in 10.0 mi WSW 15.0 mph 31.1 mph N/A   Overcast
3:15 PM 41.0 °F 34.7 °F 32.0 °F 70% 29.79 in 10.0 mi WSW 10.4 mph 24.2 mph N/A   Overcast
3:35 PM 41.0 °F 31.9 °F 32.0 °F 70% 29.79 in 10.0 mi West 19.6 mph 25.3 mph N/A   Overcast
3:55 PM 39.2 °F 29.3 °F 32.0 °F 75% 29.78 in 10.0 mi WSW 20.7 mph 28.8 mph N/A   Overcast
4:15 PM 37.4 °F 28.5 °F 33.8 °F 87% 29.78 in 10.0 mi WSW 15.0 mph 26.5 mph N/A   Overcast
4:35 PM 35.6 °F 27.5 °F 33.8 °F 93% 29.77 in 7.0 mi WSW 11.5 mph 26.5 mph N/A   Overcast
4:55 PM 35.6 °F 29.2 °F 33.8 °F 93% 29.76 in 10.0 mi WSW 8.1 mph 21.9 mph N/A   Overcast
5:15 PM 35.6 °F 26.6 °F 32.0 °F 87% 29.75 in 10.0 mi WSW 13.8 mph 20.7 mph N/A   Overcast
5:35 PM 35.6 °F 25.9 °F 33.8 °F 93% 29.75 in 10.0 mi SW 16.1 mph 23.0 mph N/A   Overcast
5:55 PM 35.6 °F 26.6 °F 33.8 °F 93% 29.75 in 5.0 mi WSW 13.8 mph 24.2 mph N/A   Overcast
6:15 PM 35.6 °F 28.6 °F 32.0 °F 87% 29.75 in 7.0 mi WSW 9.2 mph 20.7 mph N/A   Overcast
6:35 PM 35.6 °F 29.2 °F 33.8 °F 93% 29.74 in 7.0 mi SW 8.1 mph 20.7 mph N/A Rain Light Rain
6:55 PM 35.6 °F 28.6 °F 33.8 °F 93% 29.76 in 7.0 mi WSW 9.2 mph 16.1 mph N/A   Overcast
7:15 PM 33.8 °F 26.4 °F 33.8 °F 100% 29.76 in 5.0 mi SW 9.2 mph 17.3 mph N/A   Overcast
7:35 PM 35.6 °F 29.9 °F 32.0 °F 87% 29.76 in 10.0 mi WSW 6.9 mph 24.2 mph N/A   Overcast
7:55 PM 35.6 °F 29.2 °F 32.0 °F 87% 29.76 in 10.0 mi WSW 8.1 mph 18.4 mph N/A   Overcast
8:15 PM 35.6 °F - 32.0 °F 87% 29.77 in 10.0 mi Calm Calm - N/A   Overcast
8:35 PM 35.6 °F 28.0 °F 30.2 °F 81% 29.77 in 10.0 mi WSW 10.4 mph 16.1 mph N/A   Overcast
8:55 PM 33.8 °F 29.6 °F 28.4 °F 81% 29.77 in 10.0 mi WSW 4.6 mph - N/A   Overcast
9:15 PM 33.8 °F 28.6 °F 28.4 °F 81% 29.77 in 10.0 mi SW 5.8 mph - N/A   Overcast
9:35 PM 33.8 °F 27.7 °F 28.4 °F 81% 29.78 in 10.0 mi WSW 6.9 mph 21.9 mph N/A   Overcast
9:55 PM 33.8 °F 27.0 °F 28.4 °F 81% 29.78 in 10.0 mi WSW 8.1 mph 18.4 mph N/A   Overcast
10:15 PM 33.8 °F 25.8 °F 28.4 °F 81% 29.77 in 10.0 mi WSW 10.4 mph 16.1 mph N/A   Overcast
10:35 PM 33.8 °F 28.6 °F 28.4 °F 81% 29.77 in 10.0 mi WSW 5.8 mph 16.1 mph N/A   Overcast
10:55 PM 33.8 °F 25.3 °F 28.4 °F 81% 29.77 in 10.0 mi West 11.5 mph - N/A   Overcast
11:15 PM 33.8 °F 25.8 °F 28.4 °F 81% 29.76 in 10.0 mi SW 10.4 mph 16.1 mph N/A   Overcast
11:35 PM 33.8 °F 26.4 °F 28.4 °F 81% 29.75 in 10.0 mi West 9.2 mph 18.4 mph N/A   Overcast
11:55 PM 33.8 °F 27.0 °F 26.6 °F 75% 29.74 in 10.0 mi WSW 8.1 mph - N/A   Overcast